Time;durP1;ratioP1;P1;durP2;ratioP2;P2;SDS_P1;SDS_P2;PMS_P1;PMS_P2;Temp;Humidity;BMP_temperature;BMP_pressure;BME280_temperature;BME280_humidity;BME280_pressure;Samples;Min_cycle;Max_cycle;Signal;HPM_P1;HPM_P2
2023/10/14 00:01:28;;;;;;;100.30;60.10;;;;;;;7.97;100.00;101417.42;105844;1251;73718;-77
2023/10/14 00:03:56;;;;;;;97.80;58.60;;;;;;;7.98;100.00;101419.46;105836;1255;64843;-77
2023/10/14 00:06:23;;;;;;;96.80;59.00;;;;;;;7.98;100.00;101418.77;105926;1251;71394;-75
2023/10/14 00:09:01;;;;;;;92.60;57.80;;;;;;;7.98;100.00;101422.08;105965;1256;61117;-75
2023/10/14 00:11:35;;;;;;;106.60;59.60;;;;;;;7.98;100.00;101425.02;106003;1251;60460;-75
2023/10/14 00:14:16;;;;;;;;;;;;;;;7.99;100.00;101426.90;105952;1251;73821;-75
2023/10/14 00:16:51;;;;;;;112.00;57.80;;;;;;;8.00;100.00;101427.23;105862;1256;63743;-79
2023/10/14 00:19:18;;;;;;;132.00;58.50;;;;;;;7.99;100.00;101426.71;105939;1256;74282;-76
2023/10/14 00:21:48;;;;;;;203.90;62.80;;;;;;;8.00;100.00;101420.95;105937;1256;60978;-76
2023/10/14 00:24:26;;;;;;;149.40;62.20;;;;;;;8.02;100.00;101417.23;106004;1251;60387;-75
2023/10/14 00:26:54;;;;;;;162.00;59.80;;;;;;;8.03;100.00;101415.77;105900;1251;73846;-76
2023/10/14 00:29:21;;;;;;;146.20;60.90;;;;;;;8.02;100.00;101415.30;106024;1256;63629;-76
2023/10/14 00:31:50;;;;;;;102.00;57.90;;;;;;;8.00;100.00;101416.57;106044;1251;72678;-75
2023/10/14 00:34:21;;;;;;;94.30;53.30;;;;;;;7.97;100.00;101422.95;105834;1251;60541;-75
2023/10/14 00:36:49;;;;;;;99.40;53.50;;;;;;;7.94;100.00;101422.73;105842;1251;60431;-76
2023/10/14 00:39:16;;;;;;;82.50;49.50;;;;;;;7.90;100.00;101419.91;105861;1252;74284;-77
2023/10/14 00:41:46;;;;;;;80.40;51.10;;;;;;;7.85;100.00;101413.66;105803;1256;63812;-79
2023/10/14 00:44:12;;;;;;;78.10;50.30;;;;;;;7.81;100.00;101415.02;105938;1256;72136;-77
2023/10/14 00:46:48;;;;;;;70.70;47.90;;;;;;;7.78;100.00;101415.98;105905;1256;61176;-76
2023/10/14 00:49:31;;;;;;;67.30;46.40;;;;;;;7.77;100.00;101417.59;105805;1251;60572;-77
2023/10/14 00:51:59;;;;;;;71.50;46.90;;;;;;;7.76;100.00;101416.41;105898;1251;73867;-78
2023/10/14 00:54:36;;;;;;;75.70;50.60;;;;;;;7.76;100.00;101417.95;105832;1256;63715;-75
2023/10/14 00:59:48;;;;;;;72.70;49.30;;;;;;;7.74;100.00;101422.42;105802;1255;61148;-77
2023/10/14 01:02:18;;;;;;;66.90;46.30;;;;;;;7.73;100.00;101421.20;105789;1251;60469;-76
2023/10/14 01:04:53;;;;;;;75.20;48.70;;;;;;;7.73;100.00;101424.54;105814;1251;73906;-77
2023/10/14 01:07:21;;;;;;;77.30;49.10;;;;;;;7.74;100.00;101418.40;105886;1256;63971;-75
2023/10/14 01:09:52;;;;;;;73.20;50.00;;;;;;;7.76;100.00;101421.09;105966;1251;72633;-77
2023/10/14 01:12:27;;;;;;;75.70;50.00;;;;;;;7.80;100.00;101416.97;105839;1256;61221;-75
2023/10/14 01:14:58;;;;;;;80.10;51.20;;;;;;;7.84;100.00;101413.34;105932;1251;60457;-74
2023/10/14 01:17:29;;;;;;;103.20;54.20;;;;;;;7.89;100.00;101413.35;105891;1251;73819;-75
2023/10/14 01:20:06;;;;;;;76.70;50.90;;;;;;;7.93;100.00;101413.73;105853;1251;62659;-77
2023/10/14 01:22:34;;;;;;;81.30;51.70;;;;;;;7.96;100.00;101420.05;105936;1251;72735;-75
2023/10/14 01:25:05;;;;;;;78.20;50.10;;;;;;;7.98;100.00;101425.20;105906;1253;61240;-75
2023/10/14 01:27:35;;;;;;;96.80;50.60;;;;;;;7.98;100.00;101430.95;105970;1254;60690;-79
2023/10/14 01:30:14;;;;;;;84.30;50.90;;;;;;;7.97;100.00;101428.54;105913;1251;73851;-76
2023/10/14 01:35:31;;;;;;;95.50;51.80;;;;;;;7.98;100.00;101435.48;105796;1254;71351;-75
2023/10/14 01:37:59;;;;;;;112.10;52.40;;;;;;;7.98;100.00;101436.88;105838;1256;61114;-75
2023/10/14 01:43:06;;;;;;;94.30;49.40;;;;;;;8.00;100.00;101436.11;105913;1251;73626;-76
2023/10/14 01:45:40;;;;;;;108.10;44.90;;;;;;;8.00;100.00;101436.60;105948;1255;62866;-75
2023/10/14 01:51:09;;;;;;;120.40;49.50;;;;;;;8.04;100.00;101435.43;102664;1290;615157;-77
2023/10/14 01:53:38;;;;;;;95.20;49.50;;;;;;;8.03;100.00;101435.65;105167;1266;60544;-76
2023/10/14 01:56:06;;;;;;;105.80;48.60;;;;;;;8.02;100.00;101433.77;105028;1266;59847;-79
2023/10/14 01:58:33;;;;;;;112.70;48.60;;;;;;;8.02;100.00;101434.64;105721;1254;72248;-76
2023/10/14 02:01:07;;;;;;;92.10;48.90;;;;;;;8.00;100.00;101436.95;105756;1260;63860;-76
2023/10/14 02:03:35;;;;;;;97.00;51.00;;;;;;;7.99;100.00;101440.16;105327;1260;196616;-76
2023/10/14 02:06:11;;;;;;;107.10;47.40;;;;;;;7.99;100.00;101442.59;105755;1257;61134;-77
2023/10/14 02:08:38;;;;;;;109.20;50.70;;;;;;;7.98;100.00;101443.30;105831;1254;60268;-77
2023/10/14 02:11:05;;;;;;;120.20;50.10;;;;;;;7.97;100.00;101443.36;105756;1257;71396;-75
2023/10/14 02:13:36;;;;;;;116.30;49.40;;;;;;;7.96;100.00;101440.94;105723;1257;63759;-74
2023/10/14 02:16:07;;;;;;;103.50;48.80;;;;;;;7.95;100.00;101439.23;105870;1256;72637;-77
2023/10/14 02:18:38;;;;;;;104.80;50.10;;;;;;;7.94;100.00;101436.14;105822;1256;61164;-76
2023/10/14 02:21:05;;;;;;;122.60;50.90;;;;;;;7.92;100.00;101436.73;105666;1260;59720;-76
2023/10/14 02:23:45;;;;;;;127.80;48.80;;;;;;;7.90;100.00;101438.03;105755;1254;72977;-75
2023/10/14 02:26:16;;;;;;;99.10;50.20;;;;;;;7.87;100.00;101438.13;105748;1257;63805;-74
2023/10/14 02:28:45;;;;;;;113.10;50.30;;;;;;;7.86;100.00;101438.02;105765;1254;72742;-75
2023/10/14 02:31:17;;;;;;;107.80;50.70;;;;;;;7.83;100.00;101435.12;105438;1254;61155;-75
2023/10/14 02:33:47;;;;;;;93.30;51.10;;;;;;;7.80;100.00;101429.16;105796;1255;60270;-77
2023/10/14 02:36:15;;;;;;;125.00;51.80;;;;;;;7.77;100.00;101426.98;105739;1257;73003;-77
2023/10/14 02:38:45;;;;;;;107.20;50.30;;;;;;;7.76;100.00;101428.77;105941;1255;62527;-75
2023/10/14 02:41:15;;;;;;;94.50;52.80;;;;;;;7.73;100.00;101422.27;105849;1256;72633;-75
2023/10/14 02:43:48;;;;;;;89.60;52.70;;;;;;;7.72;100.00;101417.97;105819;1257;61060;-75
2023/10/14 02:46:21;;;;;;;113.60;52.40;;;;;;;7.69;100.00;101413.34;105777;1257;59553;-75
2023/10/14 02:48:54;;;;;;;92.50;50.80;;;;;;;7.66;100.00;101415.35;105810;1255;73054;-76
2023/10/14 02:51:36;;;;;;;73.00;48.40;;;;;;;7.65;100.00;101418.54;105948;1257;63647;-75
2023/10/14 02:54:04;;;;;;;81.60;49.00;;;;;;;7.62;100.00;101416.20;105808;1257;72624;-76
2023/10/14 02:57:15;;;;;;;81.30;48.40;;;;;;;7.58;100.00;101416.01;105929;1252;59708;-77
2023/10/14 02:59:29;;;;;;;83.20;45.90;;;;;;;7.55;100.00;101416.43;106010;1251;60199;-76
2023/10/14 03:02:15;;;;;;;105.10;46.60;;;;;;;7.56;100.00;101415.20;106004;1254;73000;-77
2023/10/14 03:05:08;;;;;;;82.70;47.00;;;;;;;7.56;100.00;101410.85;105887;1256;64156;-77
2023/10/14 03:10:35;;;;;;;91.90;44.20;;;;;;;7.54;100.00;101408.85;105890;1257;61332;-75
2023/10/14 03:13:02;;;;;;;77.00;44.50;;;;;;;7.53;100.00;101406.23;106083;1254;60021;-75
2023/10/14 03:15:33;;;;;;;74.20;45.20;;;;;;;7.53;100.00;101410.61;106097;1253;73080;-75
2023/10/14 03:18:03;;;;;;;81.50;45.40;;;;;;;7.49;100.00;101409.16;106180;1253;63845;-74
2023/10/14 03:23:11;;;;;;;73.40;47.00;;;;;;;7.42;100.00;101405.59;106007;1254;59808;-76
2023/10/14 03:25:38;;;;;;;68.20;44.20;;;;;;;7.40;100.00;101405.64;106122;1254;59573;-77
2023/10/14 03:28:13;;;;;;;65.80;45.10;;;;;;;7.42;100.00;101407.31;105977;1251;73139;-75
2023/10/14 03:30:45;;;;;;;63.40;43.20;;;;;;;7.44;100.00;101412.14;106023;1254;63827;-76
2023/10/14 03:33:19;;;;;;;69.20;43.60;;;;;;;7.45;100.00;101408.42;106066;1254;71490;-76
2023/10/14 03:35:56;;;;;;;73.20;41.80;;;;;;;7.47;100.00;101411.65;106033;1254;61154;-75
2023/10/14 03:38:42;;;;;;;67.50;42.80;;;;;;;7.49;100.00;101411.77;106069;1254;59607;-75
2023/10/14 03:41:16;;;;;;;79.60;42.60;;;;;;;7.50;100.00;101411.41;106025;1253;72888;-75
2023/10/14 03:47:03;;;;;;;78.90;44.20;;;;;;;7.52;100.00;101419.88;106002;1254;72600;-77
2023/10/14 03:49:20;;;;;;;74.70;45.10;;;;;;;7.52;100.00;101424.05;105896;1252;59659;-76
2023/10/14 03:51:54;;;;;;;76.00;42.90;;;;;;;7.52;100.00;101421.60;106038;1251;59660;-78
2023/10/14 03:54:24;;;;;;;76.60;43.10;;;;;;;7.53;100.00;101420.54;106025;1252;73124;-77
2023/10/14 03:56:51;;;;;;;67.30;38.90;;;;;;;7.53;100.00;101422.63;106024;1252;61407;-78
2023/10/14 03:59:22;;;;;;;71.20;44.10;;;;;;;7.52;100.00;101422.84;106005;1253;71566;-77
2023/10/14 04:02:05;;;;;;;85.60;55.70;;;;;;;7.49;100.00;101429.71;106078;1253;61174;-77
2023/10/14 04:04:32;;;;;;;61.20;38.50;;;;;;;7.45;100.00;101430.19;106019;1251;60095;-78
2023/10/14 04:09:42;;;;;;;71.10;38.20;;;;;;;7.44;100.00;101437.35;106057;1254;63656;-76
2023/10/14 04:12:21;;;;;;;83.00;40.80;;;;;;;7.44;100.00;101438.91;105961;1254;72760;-77
2023/10/14 04:14:54;;;;;;;86.40;38.40;;;;;;;7.44;100.00;101436.11;105968;1254;61028;-77
2023/10/14 04:17:30;;;;;;;96.60;38.90;;;;;;;7.46;100.00;101433.27;106018;1254;59635;-77
2023/10/14 04:22:39;;;;;;;84.40;38.60;;;;;;;7.52;100.00;101428.39;105929;1251;62386;-76
2023/10/14 04:35:23;;;;;;;80.20;36.70;;;;;;;7.70;100.00;101421.14;106013;1253;63815;-77
2023/10/14 04:37:50;;;;;;;66.80;37.90;;;;;;;7.74;100.00;101425.53;105896;1251;71956;-77
2023/10/14 04:45:45;;;;;;;121.90;62.10;;;;;;;7.84;100.00;101424.12;105972;1254;72881;-77
2023/10/14 04:48:14;;;;;;;145.40;62.40;;;;;;;7.86;100.00;101426.13;105906;1255;63855;-77
2023/10/14 04:50:42;;;;;;;140.60;63.40;;;;;;;7.91;100.00;101426.86;106119;1253;72640;-74
2023/10/14 04:53:13;;;;;;;137.70;63.80;;;;;;;7.94;100.00;101427.07;106147;1251;61116;-76
2023/10/14 04:55:43;;;;;;;161.30;69.40;;;;;;;7.99;100.00;101425.66;106051;1252;60516;-77
2023/10/14 05:00:42;;;;;;;108.30;64.60;;;;;;;8.10;100.00;101431.73;106030;1251;62616;-77
2023/10/14 05:03:11;;;;;;;113.10;61.40;;;;;;;8.16;100.00;101428.91;106136;1256;72697;-77
2023/10/14 05:08:44;;;;;;;113.70;53.40;;;;;;;8.27;100.00;101433.36;106077;1253;60388;-74
2023/10/14 05:11:14;;;;;;;94.50;54.60;;;;;;;8.36;100.00;101432.17;106035;1254;71875;-74
2023/10/14 05:13:44;;;;;;;91.10;44.70;;;;;;;8.44;100.00;101439.05;106170;1253;63823;-77
2023/10/14 05:16:15;;;;;;;117.10;53.00;;;;;;;8.51;100.00;101441.91;106127;1254;72539;-74
2023/10/14 05:18:59;;;;;;;102.30;49.10;;;;;;;8.58;100.00;101448.95;106037;1253;61229;-75
2023/10/14 05:21:43;;;;;;;86.80;46.90;;;;;;;8.68;100.00;101443.70;106051;1254;60106;-75
2023/10/14 05:24:10;;;;;;;108.90;40.60;;;;;;;8.75;100.00;101440.30;106013;1253;71974;-75
2023/10/14 05:26:46;;;;;;;88.40;38.50;;;;;;;8.81;100.00;101441.80;106002;1254;63739;-77
2023/10/14 05:29:17;;;;;;;54.10;36.80;;;;;;;8.87;100.00;101441.20;106126;1253;72735;-75
2023/10/14 05:31:48;;;;;;;67.00;37.00;;;;;;;8.93;100.00;101441.82;106128;1251;59735;-75
2023/10/14 05:34:21;;;;;;;57.90;37.00;;;;;;;8.99;100.00;101440.40;106024;1254;59646;-79
2023/10/14 05:36:52;;;;;;;78.10;37.70;;;;;;;9.05;100.00;101443.10;106085;1254;73054;-76
2023/10/14 05:39:20;;;;;;;81.50;37.60;;;;;;;9.12;100.00;101444.06;106856;1253;62564;-77
2023/10/14 05:41:58;;;;;;;81.20;36.40;;;;;;;9.19;100.00;101449.00;106005;1253;71731;-77
2023/10/14 05:44:29;;;;;;;76.80;35.20;;;;;;;9.26;100.00;101445.92;105888;1259;61981;-76
2023/10/14 05:46:56;;;;;;;68.30;37.40;;;;;;;9.34;100.00;101452.19;106062;1254;61562;-76
2023/10/14 05:49:24;;;;;;;73.50;38.60;;;;;;;9.43;100.00;101448.88;105928;1254;72879;-78
2023/10/14 05:51:52;;;;;;;55.20;37.50;;;;;;;9.51;100.00;101448.01;105879;1257;63820;-76
2023/10/14 05:54:22;;;;;;;58.50;38.40;;;;;;;9.58;100.00;101447.04;106043;1254;72714;-78
2023/10/14 05:56:51;;;;;;;75.80;39.00;;;;;;;9.66;100.00;101443.02;106048;1262;60480;-77
2023/10/14 05:59:19;;;;;;;62.60;37.00;;;;;;;9.73;100.00;101446.05;106117;1253;60284;-75
2023/10/14 06:01:46;;;;;;;70.90;38.90;;;;;;;9.82;100.00;101447.94;106065;1254;72980;-76
2023/10/14 06:04:14;;;;;;;69.80;37.30;;;;;;;9.89;100.00;101442.56;106189;1254;63875;-75
2023/10/14 06:06:41;;;;;;;54.70;39.70;;;;;;;9.95;100.00;101440.52;106181;1251;72657;-74
2023/10/14 06:09:09;;;;;;;80.20;39.60;;;;;;;10.01;100.00;101440.45;106175;1250;62006;-74
2023/10/14 06:11:39;;;;;;;73.10;40.90;;;;;;;10.07;100.00;101441.59;106191;1254;60447;-76
2023/10/14 06:14:06;;;;;;;61.30;39.90;;;;;;;10.12;100.00;101441.69;106198;1251;73765;-75
2023/10/14 06:16:33;;;;;;;66.00;42.40;;;;;;;10.20;100.00;101446.44;106207;1254;63894;-74
2023/10/14 06:19:00;;;;;;;69.90;40.70;;;;;;;10.26;100.00;101445.98;106120;1252;74852;-77
2023/10/14 06:21:27;;;;;;;76.70;41.40;;;;;;;10.33;100.00;101443.39;106096;1254;61857;-76
2023/10/14 06:23:54;;;;;;;84.20;45.10;;;;;;;10.42;100.00;101450.19;106149;1253;60449;-74
2023/10/14 06:26:25;;;;;;;99.10;45.90;;;;;;;10.52;100.00;101448.28;106152;1251;73878;-79
2023/10/14 06:28:56;;;;;;;94.90;47.70;;;;;;;10.65;100.00;101448.56;105946;1264;64970;-79
2023/10/14 06:31:23;;;;;;;92.80;45.60;;;;;;;10.76;100.00;101442.82;106139;1254;72554;-78
2023/10/14 06:33:54;;;;;;;100.70;49.30;;;;;;;10.82;100.00;101438.66;106110;1249;60830;-78
2023/10/14 06:36:24;;;;;;;100.80;48.00;;;;;;;10.90;100.00;101436.55;105858;1251;60423;-78
2023/10/14 06:38:51;;;;;;;92.40;47.80;;;;;;;10.99;100.00;101431.90;106170;1253;73586;-78
2023/10/14 06:41:18;;;;;;;101.20;51.70;;;;;;;11.09;100.00;101429.31;106164;1254;63050;-76
2023/10/14 06:43:47;;;;;;;93.80;50.20;;;;;;;11.21;100.00;101430.84;105843;1257;72941;-76
2023/10/14 06:46:16;;;;;;;101.90;52.10;;;;;;;11.32;100.00;101426.23;106197;1254;61651;-76
2023/10/14 06:48:44;;;;;;;104.60;54.10;;;;;;;11.44;100.00;101426.73;106205;1254;60468;-77
2023/10/14 06:51:11;;;;;;;108.80;55.80;;;;;;;11.52;100.00;101428.23;106453;1254;73168;-77
2023/10/14 06:53:39;;;;;;;101.70;54.90;;;;;;;11.59;100.00;101426.13;106410;1254;63440;-75
2023/10/14 06:56:06;;;;;;;119.50;58.90;;;;;;;11.68;100.00;101420.92;106218;1253;72490;-76
2023/10/14 06:58:33;;;;;;;108.60;56.20;;;;;;;11.77;100.00;101419.23;106164;1251;62204;-75
2023/10/14 07:01:00;;;;;;;115.10;55.00;;;;;;;11.87;100.00;101419.43;106104;1250;60350;-80
2023/10/14 07:03:28;;;;;;;117.40;56.20;;;;;;;11.95;100.00;101417.64;105931;1250;74788;-76
2023/10/14 07:08:23;;;;;;;111.00;56.00;;;;;;;12.12;100.00;101411.66;106442;1254;73886;-74
2023/10/14 07:10:51;;;;;;;109.50;53.60;;;;;;;12.20;100.00;101403.69;106194;1254;61878;-78
2023/10/14 07:13:22;;;;;;;111.20;55.50;;;;;;;12.26;100.00;101401.77;106156;1254;60415;-76
2023/10/14 07:15:50;;;;;;;114.20;56.50;;;;;;;12.30;100.00;101401.17;105810;1249;73639;-78
2023/10/14 07:18:23;;;;;;;106.90;55.40;;;;;;;12.35;100.00;101400.02;106129;1252;64195;-79
2023/10/14 07:21:03;;;;;;;117.30;56.60;;;;;;;12.40;100.00;101398.20;106048;1254;73562;-76
2023/10/14 07:23:34;;;;;;;102.50;51.70;;;;;;;12.48;100.00;101397.04;105839;1251;61134;-76
2023/10/14 07:26:12;;;;;;;111.80;55.80;;;;;;;12.56;100.00;101393.64;106235;1251;60626;-75
2023/10/14 07:28:51;;;;;;;114.10;54.80;;;;;;;12.62;100.00;101391.16;106182;1259;73004;-75
2023/10/14 07:31:19;;;;;;;109.90;53.70;;;;;;;12.70;100.00;101392.13;106144;1255;63476;-80
2023/10/14 07:33:47;;;;;;;104.10;52.90;;;;;;;12.81;100.00;101399.02;106258;1254;72838;-77
2023/10/14 07:36:15;;;;;;;112.50;58.70;;;;;;;12.94;100.00;101400.63;106006;1255;61952;-77
2023/10/14 07:38:45;;;;;;;116.40;58.00;;;;;;;13.06;100.00;101405.70;106203;1253;60297;-76
2023/10/14 07:41:12;;;;;;;109.30;57.10;;;;;;;13.19;100.00;101403.34;106111;1251;75333;-77
2023/10/14 07:43:39;;;;;;;117.80;58.90;;;;;;;13.35;100.00;101401.58;105944;1256;62951;-77
2023/10/14 07:46:08;;;;;;;118.50;59.20;;;;;;;13.53;100.00;101397.00;106176;1251;73986;-78
2023/10/14 07:48:37;;;;;;;100.20;53.30;;;;;;;13.82;100.00;101395.27;106174;1254;61909;-76
2023/10/14 07:51:06;;;;;;;91.10;49.30;;;;;;;14.24;100.00;101387.05;105979;1252;60440;-77
2023/10/14 07:53:52;;;;;;;86.90;47.00;;;;;;;14.88;100.00;101378.55;106099;1254;74976;-78
2023/10/14 07:56:22;;;;;;;76.40;47.00;;;;;;;15.57;100.00;101384.69;106109;1251;63938;-76
2023/10/14 07:58:52;;;;;;;88.80;49.70;;;;;;;16.32;100.00;101386.33;106140;1251;72621;-75
2023/10/14 08:01:23;;;;;;;83.30;48.70;;;;;;;17.06;100.00;101392.02;106190;1254;61707;-77
2023/10/14 08:03:49;;;;;;;89.50;48.90;;;;;;;17.73;100.00;101396.85;106134;1251;60494;-78
2023/10/14 08:06:17;;;;;;;96.60;54.00;;;;;;;18.34;100.00;101397.52;106162;1253;73903;-78
2023/10/14 08:08:47;;;;;;;80.50;50.00;;;;;;;18.76;100.00;101393.41;106127;1253;64024;-77
2023/10/14 08:11:14;;;;;;;75.60;48.50;;;;;;;19.18;100.00;101388.30;106116;1251;74093;-76
2023/10/14 08:13:42;;;;;;;78.50;47.40;;;;;;;19.56;100.00;101385.13;106161;1254;61683;-76
2023/10/14 08:16:11;;;;;;;74.60;48.90;;;;;;;19.87;100.00;101381.58;106151;1251;60551;-76
2023/10/14 08:18:41;;;;;;;82.40;48.40;;;;;;;20.20;100.00;101377.82;106212;1253;73842;-76
2023/10/14 08:21:11;;;;;;;75.70;45.30;;;;;;;20.57;100.00;101371.29;106159;1253;63918;-76
2023/10/14 08:23:39;;;;;;;70.10;43.30;;;;;;;20.94;100.00;101368.47;106184;1253;71584;-78
2023/10/14 08:26:13;;;;;;;72.20;46.90;;;;;;;21.27;100.00;101365.84;106253;1251;61941;-75
2023/10/14 08:28:42;;;;;;;66.50;44.00;;;;;;;21.72;100.00;101365.52;106245;1254;60427;-75
2023/10/14 08:31:11;;;;;;;69.90;44.20;;;;;;;22.25;100.00;101365.38;106256;1251;72533;-77
2023/10/14 08:33:38;;;;;;;63.40;42.70;;;;;;;22.76;100.00;101360.92;106031;1257;63920;-77
2023/10/14 08:36:05;;;;;;;56.40;39.10;;;;;;;23.29;100.00;101354.38;106282;1251;72633;-76
2023/10/14 08:38:33;;;;;;;60.10;40.30;;;;;;;23.86;100.00;101350.39;106330;1250;60437;-75
2023/10/14 08:41:00;;;;;;;50.30;35.70;;;;;;;24.46;100.00;101350.14;106198;1254;60344;-76
2023/10/14 08:43:28;;;;;;;22.10;17.10;;;;;;;25.01;98.44;101343.10;106203;1252;73815;-76
2023/10/14 08:45:55;;;;;;;24.60;17.80;;;;;;;25.58;93.52;101341.13;106113;1254;63888;-76
2023/10/14 08:48:26;;;;;;;21.40;15.50;;;;;;;26.15;87.56;101338.01;105857;1254;72581;-75
2023/10/14 08:50:57;;;;;;;24.20;16.20;;;;;;;26.67;81.09;101330.25;105957;1251;61102;-77
2023/10/14 08:53:25;;;;;;;28.40;15.80;;;;;;;27.12;74.36;101327.45;106223;1253;60641;-76
2023/10/14 08:55:57;;;;;;;19.10;14.80;;;;;;;27.49;68.09;101327.46;106130;1251;73808;-77
2023/10/14 08:58:26;;;;;;;21.80;15.00;;;;;;;27.79;64.52;101321.98;105806;1251;62648;-77
2023/10/14 09:00:54;;;;;;;21.20;16.60;;;;;;;28.07;64.43;101319.72;106228;1253;72950;-78
2023/10/14 09:03:21;;;;;;;28.30;17.90;;;;;;;28.34;64.70;101312.61;106459;1254;60467;-79
2023/10/14 09:05:48;;;;;;;26.80;23.20;;;;;;;28.66;62.83;101308.17;106198;1254;60546;-79
2023/10/14 09:08:17;;;;;;;19.70;13.80;;;;;;;29.02;61.14;101308.34;106159;1253;73978;-77
2023/10/14 09:10:45;;;;;;;17.10;10.60;;;;;;;29.35;57.00;101302.33;106173;1252;63836;-77
2023/10/14 09:13:19;;;;;;;18.50;12.80;;;;;;;29.62;53.68;101295.86;106178;1251;73344;-78
2023/10/14 09:15:46;;;;;;;22.00;12.20;;;;;;;29.88;53.05;101299.71;106179;1253;60422;-78
2023/10/14 09:18:21;;;;;;;14.30;11.00;;;;;;;30.22;52.38;101288.23;106087;1250;60502;-77
2023/10/14 09:20:55;;;;;;;12.80;10.20;;;;;;;30.55;48.58;101283.57;106409;1250;73802;-80
2023/10/14 09:23:29;;;;;;;14.60;11.40;;;;;;;30.64;47.38;101282.11;105983;1251;62735;-80
2023/10/14 09:26:01;;;;;;;21.50;11.10;;;;;;;30.73;48.07;101279.11;106176;1253;71540;-78
2023/10/14 09:28:33;;;;;;;15.00;8.80;;;;;;;30.93;47.37;101278.23;106082;1254;60567;-79
2023/10/14 09:31:02;;;;;;;11.10;8.30;;;;;;;30.96;46.74;101274.33;106142;1262;60421;-79
2023/10/14 09:33:34;;;;;;;13.60;7.50;;;;;;;30.68;46.05;101274.48;106254;1251;72796;-78
2023/10/14 09:36:14;;;;;;;13.60;7.80;;;;;;;30.19;47.90;101269.55;106153;1253;63897;-78
2023/10/14 09:38:42;;;;;;;12.90;7.80;;;;;;;29.81;49.62;101266.33;106125;1251;72461;-75
2023/10/14 09:41:10;;;;;;;17.50;9.30;;;;;;;29.57;50.68;101262.52;106067;1252;60419;-78
2023/10/14 09:43:42;;;;;;;15.50;7.80;;;;;;;29.28;51.67;101259.23;106115;1253;60356;-75
2023/10/14 09:46:16;;;;;;;14.30;7.80;;;;;;;28.92;52.97;101261.55;106142;1253;74016;-76
2023/10/14 09:48:44;;;;;;;13.50;8.50;;;;;;;28.52;54.76;101254.35;106107;1251;63893;-75
2023/10/14 09:51:12;;;;;;;13.20;7.20;;;;;;;28.17;56.87;101252.81;106101;1254;72496;-77
2023/10/14 09:53:39;;;;;;;11.10;7.30;;;;;;;27.80;57.98;101251.95;106021;1256;60505;-77
2023/10/14 09:56:10;;;;;;;12.70;7.10;;;;;;;27.55;60.89;101251.93;106100;1251;60600;-77
2023/10/14 09:58:41;;;;;;;9.70;5.70;;;;;;;27.55;63.53;101245.05;106084;1252;73821;-76
2023/10/14 10:01:14;;;;;;;10.20;4.60;;;;;;;27.56;62.01;101246.52;105929;1256;62392;-78
2023/10/14 10:03:48;;;;;;;;;;;;;;;27.37;61.22;101246.83;106176;1251;72661;-75
2023/10/14 10:06:15;;;;;;;12.10;4.70;;;;;;;26.96;64.00;101242.95;106135;1253;60420;-75
2023/10/14 10:08:53;;;;;;;5.00;3.50;;;;;;;26.56;67.10;101242.69;106098;1252;60551;-76
2023/10/14 10:11:23;;;;;;;7.80;5.00;;;;;;;26.16;70.99;101238.27;106213;1253;74162;-78
2023/10/14 10:13:52;;;;;;;8.80;4.40;;;;;;;25.73;74.76;101239.05;105881;1257;63849;-78
2023/10/14 10:16:22;;;;;;;6.20;3.90;;;;;;;25.38;79.07;101239.13;106137;1254;72595;-77
2023/10/14 10:18:56;;;;;;;9.80;3.90;;;;;;;24.97;82.42;101235.63;107218;1254;60350;-76
2023/10/14 10:21:34;;;;;;;6.60;3.70;;;;;;;24.90;86.00;101234.72;106543;1255;60458;-75
2023/10/14 10:24:23;;;;;;;7.20;3.90;;;;;;;25.15;88.50;101230.45;105913;1257;73526;-74
2023/10/14 10:27:16;;;;;;;4.70;3.00;;;;;;;25.40;84.78;101232.10;106130;1254;63704;-77
2023/10/14 10:29:48;;;;;;;4.80;2.70;;;;;;;25.65;81.84;101227.80;106236;1253;72566;-75
2023/10/14 10:32:22;;;;;;;7.10;3.10;;;;;;;25.60;81.40;101225.70;106128;1253;60469;-75
2023/10/14 10:35:05;;;;;;;6.10;3.40;;;;;;;25.61;83.18;101226.45;106152;1254;60341;-77
2023/10/14 10:37:48;;;;;;;7.10;3.60;;;;;;;25.73;83.28;101223.20;106094;1254;73999;-78
2023/10/14 10:40:26;;;;;;;8.90;3.80;;;;;;;26.04;82.61;101226.84;106187;1254;63655;-76
2023/10/14 10:42:55;;;;;;;5.90;3.20;;;;;;;26.20;77.82;101223.91;106611;1253;72816;-79
2023/10/14 10:45:32;;;;;;;4.80;3.10;;;;;;;26.09;76.96;101224.96;106568;1251;60488;-77
2023/10/14 10:48:03;;;;;;;3.50;3.10;;;;;;;25.79;78.49;101223.67;106004;1251;60564;-77
2023/10/14 10:50:37;;;;;;;7.00;3.70;;;;;;;25.47;80.37;101222.22;106153;1253;73767;-79
2023/10/14 10:53:08;;;;;;;4.30;3.50;;;;;;;25.12;82.86;101218.27;106147;1254;63791;-77
2023/10/14 10:55:36;;;;;;;11.10;3.80;;;;;;;24.79;84.76;101220.73;106152;1252;70888;-77
2023/10/14 10:58:04;;;;;;;7.80;4.50;;;;;;;24.47;87.61;101217.38;106123;1251;60519;-78
2023/10/14 11:00:31;;;;;;;7.00;3.60;;;;;;;24.24;89.59;101214.48;106200;1250;60453;-79
2023/10/14 11:03:03;;;;;;;9.70;4.10;;;;;;;23.99;91.55;101210.78;106237;1251;73071;-80
2023/10/14 11:05:33;;;;;;;6.40;3.90;;;;;;;23.75;93.86;101209.19;105961;1251;63937;-78
2023/10/14 11:08:03;;;;;;;4.90;3.80;;;;;;;23.58;96.03;101210.46;106102;1254;71364;-78
2023/10/14 11:10:38;;;;;;;8.10;2.80;;;;;;;23.48;96.37;101205.27;106230;1252;60509;-78
2023/10/14 11:13:07;;;;;;;7.10;3.90;;;;;;;23.28;95.59;101207.96;106192;1251;60546;-76
2023/10/14 11:15:36;;;;;;;6.10;4.00;;;;;;;23.07;96.50;101203.50;106170;1251;72676;-75
2023/10/14 11:18:04;;;;;;;9.50;3.70;;;;;;;22.88;97.58;101203.79;106065;1252;62355;-77
2023/10/14 11:20:35;;;;;;;7.80;4.30;;;;;;;22.74;98.05;101204.19;106091;1251;72681;-78
2023/10/14 11:23:04;;;;;;;7.80;4.00;;;;;;;22.61;98.57;101204.13;106094;1251;60439;-78
2023/10/14 11:25:40;;;;;;;9.40;3.60;;;;;;;22.55;99.11;101203.12;106093;1252;60754;-77
2023/10/14 11:28:10;;;;;;;8.70;4.00;;;;;;;22.47;99.26;101208.90;106043;1251;73738;-76
2023/10/14 11:30:44;;;;;;;9.30;4.40;;;;;;;22.36;99.71;101207.77;106044;1254;63905;-76
2023/10/14 11:33:12;;;;;;;7.50;4.40;;;;;;;22.28;100.00;101200.14;105995;1251;72484;-79
2023/10/14 11:35:39;;;;;;;7.70;5.00;;;;;;;22.24;100.00;101197.46;106020;1256;60568;-78
2023/10/14 11:38:12;;;;;;;6.40;5.20;;;;;;;22.21;100.00;101196.54;105947;1256;60444;-76
2023/10/14 11:40:45;;;;;;;6.80;4.90;;;;;;;22.20;100.00;101195.02;106117;1251;73805;-78
2023/10/14 11:43:12;;;;;;;10.40;6.00;;;;;;;22.20;100.00;101188.84;106064;1253;63660;-79
2023/10/14 11:45:45;;;;;;;10.70;5.10;;;;;;;22.15;100.00;101187.64;105974;1251;72516;-78
2023/10/14 11:48:39;;;;;;;10.20;6.30;;;;;;;22.04;100.00;101188.23;106015;1253;60568;-77
2023/10/14 11:51:12;;;;;;;13.30;5.60;;;;;;;21.86;100.00;101182.73;106217;1250;60437;-76
2023/10/14 11:53:43;;;;;;;8.60;5.90;;;;;;;21.80;100.00;101185.34;106114;1251;73832;-76
2023/10/14 11:56:13;;;;;;;8.00;5.60;;;;;;;21.76;100.00;101184.83;106233;1254;63809;-76
2023/10/14 11:58:41;;;;;;;7.20;5.50;;;;;;;21.73;100.00;101181.55;106112;1251;72623;-77
2023/10/14 12:01:11;;;;;;;9.20;6.20;;;;;;;21.69;100.00;101176.97;106019;1251;60410;-80
2023/10/14 12:03:39;;;;;;;8.70;5.50;;;;;;;21.63;100.00;101175.73;106095;1254;60373;-79
2023/10/14 12:06:07;;;;;;;13.20;6.30;;;;;;;21.59;100.00;101174.56;106119;1251;72458;-79
2023/10/14 12:08:38;;;;;;;10.70;6.10;;;;;;;21.54;100.00;101170.91;106124;1254;62547;-76